createdAt,value
2023-03-30T14:56:04.941Z,27.24
2023-03-30T14:58:35.078Z,27.08
2023-03-30T15:01:09.668Z,27.25
2023-03-30T15:03:40.209Z,27.12
2023-03-30T15:06:15.089Z,26.92
2023-03-30T15:08:47.079Z,26.37
2023-03-30T15:11:22.058Z,25.57
2023-03-30T15:13:55.130Z,24.56
2023-03-30T15:16:28.802Z,24.00
2023-03-30T15:19:06.261Z,23.74
2023-03-30T15:21:37.367Z,23.45
2023-03-30T15:24:17.189Z,23.27
2023-03-30T15:26:49.797Z,23.17
2023-03-30T15:29:20.784Z,23.43
2023-03-30T15:32:12.536Z,23.79
2023-03-30T15:35:06.012Z,24.03
2023-03-30T15:37:36.829Z,24.18
2023-03-30T15:40:30.680Z,24.20
2023-03-30T15:43:22.427Z,23.97
2023-03-30T15:45:55.305Z,24.02
2023-03-30T15:48:27.186Z,23.99
2023-03-30T15:51:39.016Z,23.78
2023-03-30T15:54:17.062Z,23.41
2023-03-30T15:57:14.585Z,23.17
2023-03-30T15:59:52.798Z,22.92
2023-03-30T16:02:38.127Z,22.86
2023-03-30T16:05:17.453Z,22.72
2023-03-30T16:07:47.004Z,22.74
2023-03-30T16:10:21.644Z,22.67
2023-03-30T16:12:53.308Z,22.57
2023-03-30T16:15:25.003Z,22.45
2023-03-30T16:17:53.973Z,22.12
2023-03-30T16:20:24.397Z,21.89
2023-03-30T16:22:53.819Z,21.60
2023-03-30T16:25:41.748Z,21.19
2023-03-30T16:28:17.636Z,20.73
2023-03-30T16:30:49.660Z,20.52
2023-03-30T16:33:18.680Z,20.28
2023-03-30T16:35:47.898Z,19.98
2023-03-30T16:38:20.694Z,19.71
2023-03-30T16:40:54.051Z,19.47
2023-03-30T16:43:22.841Z,19.15
2023-03-30T16:45:52.102Z,18.94
2023-03-30T16:48:22.188Z,18.75
2023-03-30T16:50:54.621Z,18.56
2023-03-30T16:53:25.612Z,18.34
2023-03-30T16:55:55.344Z,18.15
2023-03-30T16:58:25.166Z,17.95
2023-03-30T17:01:02.030Z,17.84
2023-03-30T17:03:32.983Z,17.74
2023-03-30T17:06:02.469Z,17.61
2023-03-30T17:08:32.183Z,17.41
2023-03-30T17:11:04.079Z,17.30
2023-03-30T17:13:35.241Z,17.16
2023-03-30T17:16:06.289Z,17.03
2023-03-30T17:18:35.850Z,16.86
2023-03-30T17:21:05.816Z,16.75
2023-03-30T17:23:36.590Z,16.61
2023-03-30T17:26:08.164Z,16.47
2023-03-30T17:28:39.295Z,16.36
2023-03-30T17:31:15.162Z,16.26
2023-03-30T17:33:44.938Z,16.12
2023-03-30T17:36:18.808Z,15.99
2023-03-30T17:38:49.125Z,15.87
2023-03-30T17:41:19.854Z,15.77
2023-03-30T17:43:49.393Z,15.68
2023-03-30T17:46:20.005Z,15.62
2023-03-30T17:48:51.559Z,15.57
2023-03-30T17:51:20.998Z,15.51
2023-03-30T17:53:50.004Z,15.44
2023-03-30T17:56:19.132Z,15.36
2023-03-30T17:58:50.277Z,15.31
2023-03-30T18:01:19.905Z,15.26
2023-03-30T18:03:49.952Z,15.21
2023-03-30T18:06:19.348Z,15.20
2023-03-30T18:08:49.063Z,15.19
2023-03-30T18:11:18.170Z,15.19
2023-03-30T18:13:47.746Z,15.18
2023-03-30T18:16:20.445Z,15.10
2023-03-30T18:18:49.867Z,15.06
2023-03-30T18:21:18.998Z,15.03
2023-03-30T18:23:48.500Z,15.02
2023-03-30T18:26:17.671Z,14.99
2023-03-30T18:28:46.792Z,14.96
2023-03-30T18:31:16.015Z,14.94
2023-03-30T18:33:44.947Z,14.92
2023-03-30T18:36:15.318Z,14.91
2023-03-30T18:38:45.043Z,14.85
2023-03-30T18:41:14.453Z,14.83
2023-03-30T18:43:43.934Z,14.83
2023-03-30T18:46:13.658Z,14.79
2023-03-30T18:48:42.887Z,14.78
2023-03-30T18:51:16.190Z,14.85
2023-03-30T18:53:45.742Z,14.87
2023-03-30T18:56:15.314Z,14.87
2023-03-30T18:58:44.411Z,14.83
2023-03-30T19:01:14.070Z,14.80
2023-03-30T19:03:44.194Z,14.80
2023-03-30T19:06:20.039Z,14.83
2023-03-30T19:08:52.619Z,14.83
2023-03-30T19:11:24.026Z,14.82
2023-03-30T19:13:53.437Z,14.80
2023-03-30T19:16:22.941Z,14.81
2023-03-30T19:18:54.042Z,14.78
2023-03-30T19:21:24.289Z,14.68
2023-03-30T19:23:53.454Z,14.67
2023-03-30T19:26:23.761Z,14.66
2023-03-30T19:28:52.957Z,14.61
2023-03-30T19:31:22.045Z,14.57
2023-03-30T19:33:51.282Z,14.52
2023-03-30T19:36:24.698Z,14.53
2023-03-30T19:38:54.862Z,14.55
2023-03-30T19:41:24.908Z,14.58
2023-03-30T19:43:54.812Z,14.58
2023-03-30T19:46:24.225Z,14.61
2023-03-30T19:48:53.408Z,14.66
2023-03-30T19:51:22.386Z,14.74
2023-03-30T19:53:51.694Z,14.82
2023-03-30T19:56:20.826Z,14.85
2023-03-30T19:58:51.142Z,14.84
2023-03-30T20:01:21.088Z,14.84
2023-03-30T20:03:50.485Z,14.84
2023-03-30T20:06:20.100Z,14.88
2023-03-30T20:08:49.222Z,14.84
2023-03-30T20:11:19.124Z,14.81
2023-03-30T20:13:48.599Z,14.78
2023-03-30T20:16:22.114Z,14.82
2023-03-30T20:18:54.601Z,14.83
2023-03-30T20:21:25.544Z,14.83
2023-03-30T20:23:56.423Z,14.82
2023-03-30T20:26:27.043Z,14.81
2023-03-30T20:28:57.287Z,14.81
2023-03-30T20:31:26.701Z,14.74
2023-03-30T20:33:56.647Z,14.72
2023-03-30T20:36:29.194Z,14.69
2023-03-30T20:39:01.714Z,14.66
2023-03-30T20:41:38.467Z,14.65
2023-03-30T20:44:12.159Z,14.61
2023-03-30T20:46:44.858Z,14.55
2023-03-30T20:49:16.543Z,14.50
2023-03-30T20:51:51.854Z,14.45
2023-03-30T20:54:22.985Z,14.39
2023-03-30T20:56:54.158Z,14.42
2023-03-30T20:59:25.673Z,14.38
2023-03-30T21:01:59.670Z,14.27
2023-03-30T21:04:36.106Z,14.27
2023-03-30T21:07:09.566Z,14.27
2023-03-30T21:09:42.140Z,14.30
2023-03-30T21:12:15.157Z,14.37
2023-03-30T21:14:46.797Z,14.41
2023-03-30T21:17:18.728Z,14.42
2023-03-30T21:19:48.552Z,14.47
2023-03-30T21:22:22.383Z,14.49
2023-03-30T21:24:52.962Z,14.48
2023-03-30T21:27:24.387Z,14.48
2023-03-30T21:29:55.727Z,14.51
2023-03-30T21:32:28.709Z,14.57
2023-03-30T21:35:00.435Z,14.62
2023-03-30T21:37:29.615Z,14.59
2023-03-30T21:39:59.898Z,14.50
2023-03-30T21:42:29.611Z,14.47
2023-03-30T21:44:59.281Z,14.50
2023-03-30T21:47:31.149Z,14.51
2023-03-30T21:50:00.989Z,14.52
2023-03-30T21:52:32.478Z,14.50
2023-03-30T21:55:03.094Z,14.48
2023-03-30T21:57:34.056Z,14.51
2023-03-30T22:00:08.079Z,14.55
2023-03-30T22:02:40.412Z,14.54
2023-03-30T22:05:10.023Z,14.51
2023-03-30T22:07:39.822Z,14.47
2023-03-30T22:10:10.053Z,14.51
2023-03-30T22:12:42.851Z,14.62
2023-03-30T22:15:14.121Z,14.69
2023-03-30T22:17:47.777Z,14.72
2023-03-30T22:20:20.809Z,14.70
2023-03-30T22:22:51.814Z,14.63
2023-03-30T22:25:22.692Z,14.63
2023-03-30T22:27:55.783Z,14.69
2023-03-30T22:30:25.519Z,14.65
2023-03-30T22:32:55.264Z,14.59
2023-03-30T22:35:29.407Z,14.52
2023-03-30T22:38:00.452Z,14.54
2023-03-30T22:40:32.060Z,14.59
2023-03-30T22:43:03.609Z,14.60
2023-03-30T22:45:33.292Z,14.56
2023-03-30T22:48:03.727Z,14.48
2023-03-30T22:50:36.619Z,14.50
2023-03-30T22:53:08.458Z,14.52
2023-03-30T22:55:38.626Z,14.54
2023-03-30T22:58:12.014Z,14.54
2023-03-30T23:00:42.605Z,14.49
2023-03-30T23:03:13.720Z,14.49
2023-03-30T23:05:44.831Z,14.50
2023-03-30T23:08:16.003Z,14.44
2023-03-30T23:10:46.653Z,14.30
2023-03-30T23:13:18.022Z,14.21
2023-03-30T23:15:49.242Z,14.20
2023-03-30T23:18:19.901Z,14.21
2023-03-30T23:20:51.645Z,14.20
2023-03-30T23:23:21.870Z,14.20
2023-03-30T23:25:53.059Z,14.18
2023-03-30T23:28:23.894Z,14.13
2023-03-30T23:30:55.047Z,14.04
2023-03-30T23:33:26.544Z,13.93
2023-03-30T23:35:59.250Z,13.86
2023-03-30T23:38:30.886Z,13.82
2023-03-30T23:41:02.109Z,13.81
2023-03-30T23:43:32.991Z,13.74
2023-03-30T23:46:03.385Z,13.72
2023-03-30T23:48:33.502Z,13.74
2023-03-30T23:51:03.214Z,13.74
2023-03-30T23:53:34.908Z,13.74
2023-03-30T23:56:07.872Z,13.71
2023-03-30T23:58:37.984Z,13.72
